This is the latest recevied weather packets stored in our database for station/object K8GLX. If no packets are shown the sender has not sent any weather packets the latest 1 day(s).
| Time | Temp. | Humidity | Pressure | Rain* | Wind** | Luminosity | Snow |
|---|---|---|---|---|---|---|---|
| 1778077083 | 9.44° C | 83% | 1010.7 hPa | 0 mm | - | 200 W/m² | - |
| 1778075580 | 9.44° C | 81% | 1010.3 hPa | 0 mm | - | 168 W/m² | - |
| 1778075069 | 9.44° C | 82% | 1010.3 hPa | 0 mm | - | 121 W/m² | - |
| 1778073776 | 8.89° C | 80% | 1009.9 hPa | 0 mm | - | 136 W/m² | - |
| 1778073475 | 8.89° C | 82% | 1009.5 hPa | 0 mm | - | 128 W/m² | - |
| 1778072874 | 8.89° C | 84% | 1009.2 hPa | 0 mm | - | 130 W/m² | - |
| 1778072382 | 8.33° C | 89% | 1009.5 hPa | 0 mm | - | 87 W/m² | - |
| 1778071973 | 8.33° C | 92% | 1009.2 hPa | 0 mm | - | 60 W/m² | - |
| 1778071671 | 8.33° C | 93% | 1009.5 hPa | 0 mm | - | 55 W/m² | - |
| 1778070169 | 8.33° C | 95% | 1009.5 hPa | 0 mm | - | 30 W/m² | - |
| 1778068762 | 7.78° C | 95% | 1009.2 hPa | 0 mm | - | 34 W/m² | - |
| 1778068065 | 7.78° C | 95% | 1009.2 hPa | 0 mm | - | 26 W/m² | - |
| 1778067764 | 7.78° C | 95% | 1008.9 hPa | 0 mm | - | 28 W/m² | - |
| 1778067562 | 7.78° C | 95% | 1008.5 hPa | 0 mm | - | 29 W/m² | - |
| 1778067163 | 7.78° C | 95% | 1008.5 hPa | 0 mm | - | 28 W/m² | - |
| 1778066862 | 7.78° C | 95% | 1008.5 hPa | 0 mm | - | 25 W/m² | - |
| 1778066261 | 7.78° C | 95% | 1008.5 hPa | 0 mm | - | 13 W/m² | - |
| 1778065960 | 7.78° C | 96% | 1008.2 hPa | 0 mm | - | 13 W/m² | - |
| 1778065362 | 7.78° C | 96% | 1007.8 hPa | 0 mm | - | 17 W/m² | - |
| 1778065058 | 7.78° C | 96% | 1008.2 hPa | 0 mm | - | 9 W/m² | - |
| 1778063856 | 7.78° C | 96% | 1008.2 hPa | 0.51 mm | - | 2 W/m² | - |
| 1778063551 | 7.78° C | 96% | 1008.2 hPa | 0.51 mm | - | 0 W/m² | - |
| 1778062950 | 7.78° C | 96% | 1007.8 hPa | 0.51 mm | - | 0 W/m² | - |
| 1778062650 | 7.78° C | 96% | 1007.8 hPa | 0.51 mm | - | 0 W/m² | - |
| 1778062050 | 7.78° C | 96% | 1007.8 hPa | 0.76 mm | - | 0 W/m² | - |
* Rain latest hour (hover to see other rain measurements)
** Current wind speed in m/s (hover to see current wind gust speed)